sensor_id;sensor_type;location;lat;lon;timestamp;pressure;altitude;pressure_sealevel;temperature;humidity
60307;BME280;46155;52.364;6.580;2023-04-26T03:01:14;101578.69;;;3.43;100.00
60307;BME280;46155;52.364;6.580;2023-04-26T03:03:40;101571.19;;;3.38;100.00
60307;BME280;46155;52.364;6.580;2023-04-26T03:06:06;101576.53;;;3.39;100.00
60307;BME280;46155;52.364;6.580;2023-04-26T03:08:32;101570.44;;;3.39;100.00
60307;BME280;46155;52.364;6.580;2023-04-26T03:10:59;101577.13;;;3.37;100.00
60307;BME280;46155;52.364;6.580;2023-04-26T03:13:24;101575.56;;;3.30;100.00
60307;BME280;46155;52.364;6.580;2023-04-26T03:15:50;101572.84;;;3.28;100.00
60307;BME280;46155;52.364;6.580;2023-04-26T03:18:16;101562.75;;;3.23;100.00
60307;BME280;46155;52.364;6.580;2023-04-26T03:20:44;101575.44;;;3.28;100.00
60307;BME280;46155;52.364;6.580;2023-04-26T03:23:09;101576.81;;;3.25;100.00
60307;BME280;46155;52.364;6.580;2023-04-26T03:25:35;101576.00;;;3.17;100.00
60307;BME280;46155;52.364;6.580;2023-04-26T03:28:00;101576.13;;;3.10;100.00
60307;BME280;46155;52.364;6.580;2023-04-26T03:30:26;101568.78;;;3.06;100.00
60307;BME280;46155;52.364;6.580;2023-04-26T03:32:51;101566.03;;;3.04;100.00
60307;BME280;46155;52.364;6.580;2023-04-26T03:35:17;101549.56;;;2.95;100.00
60307;BME280;46155;52.364;6.580;2023-04-26T03:37:43;101561.31;;;3.00;100.00
60307;BME280;46155;52.364;6.580;2023-04-26T03:40:09;101559.50;;;2.99;100.00
60307;BME280;46155;52.364;6.580;2023-04-26T03:42:35;101554.75;;;2.95;100.00
60307;BME280;46155;52.364;6.580;2023-04-26T03:45:01;101556.25;;;3.02;100.00
60307;BME280;46155;52.364;6.580;2023-04-26T03:47:28;101549.44;;;3.02;100.00
60307;BME280;46155;52.364;6.580;2023-04-26T03:49:53;101553.53;;;3.09;100.00
60307;BME280;46155;52.364;6.580;2023-04-26T03:52:18;101559.97;;;3.13;100.00
60307;BME280;46155;52.364;6.580;2023-04-26T03:54:44;101561.81;;;3.14;99.38
60307;BME280;46155;52.364;6.580;2023-04-26T03:57:09;101559.50;;;2.99;100.00
60307;BME280;46155;52.364;6.580;2023-04-26T03:59:34;101566.91;;;2.87;100.00
60307;BME280;46155;52.364;6.580;2023-04-26T04:01:59;101565.34;;;2.81;100.00
60307;BME280;46155;52.364;6.580;2023-04-26T04:04:25;101554.94;;;2.72;100.00
60307;BME280;46155;52.364;6.580;2023-04-26T04:06:51;101566.41;;;2.74;100.00
60307;BME280;46155;52.364;6.580;2023-04-26T04:09:16;101570.81;;;2.75;100.00
60307;BME280;46155;52.364;6.580;2023-04-26T04:11:42;101563.22;;;2.77;100.00
60307;BME280;46155;52.364;6.580;2023-04-26T04:14:07;101559.53;;;2.74;100.00
60307;BME280;46155;52.364;6.580;2023-04-26T04:16:32;101562.94;;;2.82;100.00
60307;BME280;46155;52.364;6.580;2023-04-26T04:18:57;101553.31;;;2.81;100.00
60307;BME280;46155;52.364;6.580;2023-04-26T04:21:23;101572.13;;;2.96;100.00
60307;BME280;46155;52.364;6.580;2023-04-26T04:23:48;101572.78;;;3.02;100.00
60307;BME280;46155;52.364;6.580;2023-04-26T04:26:14;101556.56;;;2.96;100.00
60307;BME280;46155;52.364;6.580;2023-04-26T04:28:40;101572.47;;;2.99;100.00
60307;BME280;46155;52.364;6.580;2023-04-26T04:31:06;101568.78;;;2.97;100.00
60307;BME280;46155;52.364;6.580;2023-04-26T04:33:34;101564.19;;;3.03;100.00
60307;BME280;46155;52.364;6.580;2023-04-26T04:36:00;101563.91;;;3.09;100.00
60307;BME280;46155;52.364;6.580;2023-04-26T04:38:25;101560.41;;;3.08;100.00
60307;BME280;46155;52.364;6.580;2023-04-26T04:40:50;101569.44;;;3.12;100.00
60307;BME280;46155;52.364;6.580;2023-04-26T04:43:16;101581.91;;;3.07;100.00
60307;BME280;46155;52.364;6.580;2023-04-26T04:45:41;101583.75;;;3.08;100.00
60307;BME280;46155;52.364;6.580;2023-04-26T04:48:07;101595.56;;;3.22;100.00
60307;BME280;46155;52.364;6.580;2023-04-26T04:50:33;101596.03;;;3.27;100.00
60307;BME280;46155;52.364;6.580;2023-04-26T04:53:00;101587.81;;;3.31;100.00
60307;BME280;46155;52.364;6.580;2023-04-26T04:55:25;101585.06;;;3.38;100.00
60307;BME280;46155;52.364;6.580;2023-04-26T04:57:51;101570.72;;;3.33;100.00
60307;BME280;46155;52.364;6.580;2023-04-26T05:00:16;101577.28;;;3.38;100.00
60307;BME280;46155;52.364;6.580;2023-04-26T05:02:42;101582.94;;;3.43;100.00
60307;BME280;46155;52.364;6.580;2023-04-26T05:05:07;101579.28;;;3.50;100.00
60307;BME280;46155;52.364;6.580;2023-04-26T05:07:33;101587.72;;;3.56;100.00
60307;BME280;46155;52.364;6.580;2023-04-26T05:09:59;101561.13;;;3.58;100.00
60307;BME280;46155;52.364;6.580;2023-04-26T05:12:24;101579.94;;;3.82;100.00
60307;BME280;46155;52.364;6.580;2023-04-26T05:14:50;101576.28;;;3.89;100.00
60307;BME280;46155;52.364;6.580;2023-04-26T05:17:15;101579.31;;;4.02;100.00
60307;BME280;46155;52.364;6.580;2023-04-26T05:19:40;101592.44;;;4.12;100.00
60307;BME280;46155;52.364;6.580;2023-04-26T05:22:06;101582.69;;;4.10;100.00
60307;BME280;46155;52.364;6.580;2023-04-26T05:24:31;101587.25;;;4.12;100.00
60307;BME280;46155;52.364;6.580;2023-04-26T05:26:57;101587.25;;;4.12;100.00
60307;BME280;46155;52.364;6.580;2023-04-26T05:29:23;101590.66;;;4.11;100.00
60307;BME280;46155;52.364;6.580;2023-04-26T05:31:48;101584.84;;;4.14;100.00
60307;BME280;46155;52.364;6.580;2023-04-26T05:34:14;101588.19;;;4.22;100.00
60307;BME280;46155;52.364;6.580;2023-04-26T05:36:39;101593.06;;;4.27;100.00
60307;BME280;46155;52.364;6.580;2023-04-26T05:39:04;101597.94;;;4.33;100.00
60307;BME280;46155;52.364;6.580;2023-04-26T05:41:30;101602.69;;;4.37;100.00
60307;BME280;46155;52.364;6.580;2023-04-26T05:43:56;101613.81;;;4.45;100.00
60307;BME280;46155;52.364;6.580;2023-04-26T05:46:21;101626.06;;;4.55;100.00
60307;BME280;46155;52.364;6.580;2023-04-26T05:48:46;101626.53;;;4.59;100.00
60307;BME280;46155;52.364;6.580;2023-04-26T05:51:12;101618.69;;;4.68;100.00
60307;BME280;46155;52.364;6.580;2023-04-26T05:53:37;101606.47;;;4.58;100.00
60307;BME280;46155;52.364;6.580;2023-04-26T05:56:03;101617.19;;;4.61;100.00
60307;BME280;46155;52.364;6.580;2023-04-26T05:58:28;101608.94;;;4.57;100.00
60307;BME280;46155;52.364;6.580;2023-04-26T06:00:53;101606.91;;;4.63;100.00
60307;BME280;46155;52.364;6.580;2023-04-26T06:03:19;101602.78;;;4.65;100.00
60307;BME280;46155;52.364;6.580;2023-04-26T06:05:44;101611.06;;;4.61;100.00
60307;BME280;46155;52.364;6.580;2023-04-26T06:08:09;101613.97;;;4.64;100.00
60307;BME280;46155;52.364;6.580;2023-04-26T06:10:35;101613.78;;;4.71;100.00
60307;BME280;46155;52.364;6.580;2023-04-26T06:13:02;101618.66;;;4.77;100.00
60307;BME280;46155;52.364;6.580;2023-04-26T06:15:27;101620.75;;;4.90;100.00
60307;BME280;46155;52.364;6.580;2023-04-26T06:17:52;101621.81;;;5.00;100.00
60307;BME280;46155;52.364;6.580;2023-04-26T06:20:18;101616.28;;;5.06;100.00
60307;BME280;46155;52.364;6.580;2023-04-26T06:22:43;101615.19;;;5.04;100.00
60307;BME280;46155;52.364;6.580;2023-04-26T06:25:08;101624.69;;;5.04;100.00
60307;BME280;46155;52.364;6.580;2023-04-26T06:27:34;101618.41;;;5.02;100.00
60307;BME280;46155;52.364;6.580;2023-04-26T06:29:59;101632.03;;;5.08;100.00
60307;BME280;46155;52.364;6.580;2023-04-26T06:32:25;101625.13;;;5.08;100.00
60307;BME280;46155;52.364;6.580;2023-04-26T06:34:51;101627.31;;;5.04;100.00
60307;BME280;46155;52.364;6.580;2023-04-26T06:37:16;101632.44;;;5.21;100.00
60307;BME280;46155;52.364;6.580;2023-04-26T06:39:41;101626.31;;;5.48;100.00
60307;BME280;46155;52.364;6.580;2023-04-26T06:42:06;101626.09;;;5.64;100.00
60307;BME280;46155;52.364;6.580;2023-04-26T06:44:32;101629.56;;;5.93;100.00
60307;BME280;46155;52.364;6.580;2023-04-26T06:46:57;101628.34;;;6.17;100.00
60307;BME280;46155;52.364;6.580;2023-04-26T06:49:23;101629.91;;;6.44;100.00
60307;BME280;46155;52.364;6.580;2023-04-26T06:51:49;101639.28;;;6.61;100.00
60307;BME280;46155;52.364;6.580;2023-04-26T06:54:16;101634.22;;;6.73;100.00
60307;BME280;46155;52.364;6.580;2023-04-26T06:56:42;101642.00;;;6.92;100.00
60307;BME280;46155;52.364;6.580;2023-04-26T06:59:07;101644.38;;;6.99;100.00
60307;BME280;46155;52.364;6.580;2023-04-26T07:01:34;101643.03;;;6.84;100.00
60307;BME280;46155;52.364;6.580;2023-04-26T07:04:03;101642.91;;;6.93;100.00
60307;BME280;46155;52.364;6.580;2023-04-26T07:06:31;101629.38;;;6.97;100.00
60307;BME280;46155;52.364;6.580;2023-04-26T07:08:59;101638.84;;;7.26;100.00
60307;BME280;46155;52.364;6.580;2023-04-26T07:11:25;101637.94;;;7.35;100.00
60307;BME280;46155;52.364;6.580;2023-04-26T07:13:51;101639.13;;;7.39;100.00
60307;BME280;46155;52.364;6.580;2023-04-26T07:16:16;101631.50;;;7.21;100.00
60307;BME280;46155;52.364;6.580;2023-04-26T07:18:42;101632.06;;;7.17;100.00
60307;BME280;46155;52.364;6.580;2023-04-26T07:21:07;101646.28;;;7.21;100.00
60307;BME280;46155;52.364;6.580;2023-04-26T07:23:32;101635.41;;;7.06;100.00
60307;BME280;46155;52.364;6.580;2023-04-26T07:25:58;101622.81;;;6.92;100.00
60307;BME280;46155;52.364;6.580;2023-04-26T07:28:25;101639.81;;;6.97;100.00
60307;BME280;46155;52.364;6.580;2023-04-26T07:30:50;101651.25;;;6.88;100.00
60307;BME280;46155;52.364;6.580;2023-04-26T07:33:15;101661.19;;;6.93;100.00
60307;BME280;46155;52.364;6.580;2023-04-26T07:35:42;101650.84;;;6.84;100.00
60307;BME280;46155;52.364;6.580;2023-04-26T07:38:07;101651.19;;;6.68;100.00
60307;BME280;46155;52.364;6.580;2023-04-26T07:40:33;101652.69;;;6.55;100.00
60307;BME280;46155;52.364;6.580;2023-04-26T07:42:59;101647.41;;;6.45;100.00
60307;BME280;46155;52.364;6.580;2023-04-26T07:45:24;101650.78;;;6.44;100.00
60307;BME280;46155;52.364;6.580;2023-04-26T07:47:49;101654.97;;;6.42;100.00
60307;BME280;46155;52.364;6.580;2023-04-26T07:50:15;101660.38;;;6.35;100.00
60307;BME280;46155;52.364;6.580;2023-04-26T07:52:40;101654.13;;;6.33;100.00
60307;BME280;46155;52.364;6.580;2023-04-26T07:55:07;101648.84;;;6.23;100.00
60307;BME280;46155;52.364;6.580;2023-04-26T07:57:33;101654.69;;;6.20;100.00
60307;BME280;46155;52.364;6.580;2023-04-26T07:59:58;101660.72;;;6.29;100.00
60307;BME280;46155;52.364;6.580;2023-04-26T08:02:23;101675.03;;;6.43;100.00
60307;BME280;46155;52.364;6.580;2023-04-26T08:04:49;101666.56;;;6.46;100.00
60307;BME280;46155;52.364;6.580;2023-04-26T08:07:19;101662.63;;;6.41;98.31
60307;BME280;46155;52.364;6.580;2023-04-26T08:09:45;101662.22;;;6.36;100.00
60307;BME280;46155;52.364;6.580;2023-04-26T08:12:11;101665.03;;;6.29;100.00
60307;BME280;46155;52.364;6.580;2023-04-26T08:14:37;101664.75;;;6.26;100.00
60307;BME280;46155;52.364;6.580;2023-04-26T08:17:03;101656.16;;;6.27;100.00
60307;BME280;46155;52.364;6.580;2023-04-26T08:19:28;101666.00;;;6.59;100.00
60307;BME280;46155;52.364;6.580;2023-04-26T08:21:56;101666.25;;;6.62;100.00
60307;BME280;46155;52.364;6.580;2023-04-26T08:24:22;101662.38;;;6.67;100.00
60307;BME280;46155;52.364;6.580;2023-04-26T08:26:47;101666.75;;;6.77;100.00
60307;BME280;46155;52.364;6.580;2023-04-26T08:29:12;101672.38;;;6.81;100.00
60307;BME280;46155;52.364;6.580;2023-04-26T08:31:39;101656.47;;;6.88;100.00
60307;BME280;46155;52.364;6.580;2023-04-26T08:34:04;101667.75;;;6.98;98.19
60307;BME280;46155;52.364;6.580;2023-04-26T08:36:30;101669.66;;;7.19;100.00
60307;BME280;46155;52.364;6.580;2023-04-26T08:38:56;101678.13;;;7.27;95.58
60307;BME280;46155;52.364;6.580;2023-04-26T08:41:22;101669.13;;;7.13;94.13
60307;BME280;46155;52.364;6.580;2023-04-26T08:43:49;101672.78;;;7.26;93.46
60307;BME280;46155;52.364;6.580;2023-04-26T08:46:18;101677.31;;;7.47;94.21
60307;BME280;46155;52.364;6.580;2023-04-26T08:48:49;101662.66;;;7.59;91.51
60307;BME280;46155;52.364;6.580;2023-04-26T08:51:19;101673.41;;;7.83;91.01
60307;BME280;46155;52.364;6.580;2023-04-26T08:53:46;101668.31;;;7.85;89.19
60307;BME280;46155;52.364;6.580;2023-04-26T08:56:13;101672.88;;;7.87;86.99
60307;BME280;46155;52.364;6.580;2023-04-26T08:58:38;101665.94;;;7.88;86.20
60307;BME280;46155;52.364;6.580;2023-04-26T09:01:04;101685.31;;;7.90;87.04
60307;BME280;46155;52.364;6.580;2023-04-26T09:03:29;101671.69;;;7.53;83.45
60307;BME280;46155;52.364;6.580;2023-04-26T09:05:55;101681.00;;;7.70;87.13
60307;BME280;46155;52.364;6.580;2023-04-26T09:08:21;101674.47;;;7.85;85.45
60307;BME280;46155;52.364;6.580;2023-04-26T09:10:46;101680.47;;;7.74;87.25
60307;BME280;46155;52.364;6.580;2023-04-26T09:13:12;101679.16;;;7.89;86.71
60307;BME280;46155;52.364;6.580;2023-04-26T09:15:38;101682.81;;;7.91;84.38
60307;BME280;46155;52.364;6.580;2023-04-26T09:18:21;101675.50;;;7.87;84.57
60307;BME280;46155;52.364;6.580;2023-04-26T09:21:07;101673.94;;;7.69;87.22
60307;BME280;46155;52.364;6.580;2023-04-26T09:23:33;101675.72;;;7.59;87.70
60307;BME280;46155;52.364;6.580;2023-04-26T09:26:18;101678.19;;;7.48;87.58
60307;BME280;46155;52.364;6.580;2023-04-26T09:28:44;101671.78;;;7.44;85.99
60307;BME280;46155;52.364;6.580;2023-04-26T09:31:10;101680.16;;;7.40;86.83
60307;BME280;46155;52.364;6.580;2023-04-26T09:33:56;101686.69;;;7.45;86.94
60307;BME280;46155;52.364;6.580;2023-04-26T09:36:21;101690.75;;;7.41;89.19
60307;BME280;46155;52.364;6.580;2023-04-26T09:38:46;101685.47;;;7.31;90.13
60307;BME280;46155;52.364;6.580;2023-04-26T09:41:12;101693.41;;;7.22;91.03
60307;BME280;46155;52.364;6.580;2023-04-26T09:43:37;101689.69;;;7.10;93.76
60307;BME280;46155;52.364;6.580;2023-04-26T09:46:03;101680.56;;;7.05;94.95
60307;BME280;46155;52.364;6.580;2023-04-26T09:48:33;101677.38;;;6.99;93.99
60307;BME280;46155;52.364;6.580;2023-04-26T09:53:40;101678.19;;;6.98;91.56
60307;BME280;46155;52.364;6.580;2023-04-26T09:58:36;101679.94;;;7.07;94.26
60307;BME280;46155;52.364;6.580;2023-04-26T10:01:02;101673.28;;;7.21;94.74
60307;BME280;46155;52.364;6.580;2023-04-26T10:03:29;101670.72;;;7.32;96.02
60307;BME280;46155;52.364;6.580;2023-04-26T10:05:56;101666.72;;;7.46;97.08
60307;BME280;46155;52.364;6.580;2023-04-26T10:08:22;101659.28;;;7.50;95.72
60307;BME280;46155;52.364;6.580;2023-04-26T10:10:48;101664.19;;;7.37;89.92
60307;BME280;46155;52.364;6.580;2023-04-26T10:13:14;101674.38;;;7.34;86.68
60307;BME280;46155;52.364;6.580;2023-04-26T10:15:40;101669.03;;;7.43;88.70
60307;BME280;46155;52.364;6.580;2023-04-26T10:18:07;101663.81;;;7.43;88.48
60307;BME280;46155;52.364;6.580;2023-04-26T10:20:39;101664.25;;;7.47;88.10
60307;BME280;46155;52.364;6.580;2023-04-26T10:23:12;101674.94;;;7.61;86.64
60307;BME280;46155;52.364;6.580;2023-04-26T10:25:41;101670.94;;;7.64;83.91
60307;BME280;46155;52.364;6.580;2023-04-26T10:28:06;101665.31;;;7.70;85.57
60307;BME280;46155;52.364;6.580;2023-04-26T10:30:32;101666.34;;;7.82;86.30
60307;BME280;46155;52.364;6.580;2023-04-26T10:33:17;101661.66;;;7.88;85.01
60307;BME280;46155;52.364;6.580;2023-04-26T10:38:30;101662.56;;;7.79;83.16
60307;BME280;46155;52.364;6.580;2023-04-26T10:43:57;101665.03;;;7.87;81.45
60307;BME280;46155;52.364;6.580;2023-04-26T10:46:39;101665.56;;;7.73;80.07
60307;BME280;46155;52.364;6.580;2023-04-26T10:49:18;101663.94;;;7.44;77.69
60307;BME280;46155;52.364;6.580;2023-04-26T10:52:09;101662.66;;;7.39;79.37
60307;BME280;46155;52.364;6.580;2023-04-26T10:54:58;101659.28;;;7.61;78.83
60307;BME280;46155;52.364;6.580;2023-04-26T10:57:48;101662.28;;;7.65;79.81
60307;BME280;46155;52.364;6.580;2023-04-26T11:00:15;101659.00;;;7.78;79.22
60307;BME280;46155;52.364;6.580;2023-04-26T11:03:03;101661.38;;;7.65;77.32
60307;BME280;46155;52.364;6.580;2023-04-26T11:05:37;101645.72;;;7.85;83.47
60307;BME280;46155;52.364;6.580;2023-04-26T11:10:51;101651.16;;;8.19;80.62
60307;BME280;46155;52.364;6.580;2023-04-26T11:13:17;101654.78;;;8.32;77.74
60307;BME280;46155;52.364;6.580;2023-04-26T11:15:44;101646.28;;;8.34;79.37
60307;BME280;46155;52.364;6.580;2023-04-26T11:18:10;101646.53;;;8.48;78.56
60307;BME280;46155;52.364;6.580;2023-04-26T11:20:35;101651.38;;;8.53;79.54
60307;BME280;46155;52.364;6.580;2023-04-26T11:23:01;101652.44;;;8.55;77.58
60307;BME280;46155;52.364;6.580;2023-04-26T11:25:27;101652.84;;;8.50;78.00
60307;BME280;46155;52.364;6.580;2023-04-26T11:28:00;101655.09;;;8.45;78.60
60307;BME280;46155;52.364;6.580;2023-04-26T11:30:29;101651.13;;;8.40;77.43
60307;BME280;46155;52.364;6.580;2023-04-26T11:32:57;101651.13;;;8.40;76.75
60307;BME280;46155;52.364;6.580;2023-04-26T11:35:22;101643.28;;;8.40;77.68
60307;BME280;46155;52.364;6.580;2023-04-26T11:37:50;101651.53;;;8.44;79.40
60307;BME280;46155;52.364;6.580;2023-04-26T11:40:16;101652.72;;;8.48;77.25
60307;BME280;46155;52.364;6.580;2023-04-26T11:42:43;101654.78;;;8.52;75.66
60307;BME280;46155;52.364;6.580;2023-04-26T11:45:09;101656.34;;;8.60;75.67
60307;BME280;46155;52.364;6.580;2023-04-26T11:47:34;101657.00;;;8.48;73.91
60307;BME280;46155;52.364;6.580;2023-04-26T11:50:00;101651.66;;;8.46;76.47
60307;BME280;46155;52.364;6.580;2023-04-26T11:52:27;101651.13;;;8.50;76.29
60307;BME280;46155;52.364;6.580;2023-04-26T11:55:05;101644.88;;;8.48;76.38
60307;BME280;46155;52.364;6.580;2023-04-26T11:57:32;101649.16;;;8.48;75.13
60307;BME280;46155;52.364;6.580;2023-04-26T12:00:14;101647.19;;;8.55;75.88
60307;BME280;46155;52.364;6.580;2023-04-26T12:02:43;101650.06;;;8.58;76.69
60307;BME280;46155;52.364;6.580;2023-04-26T12:05:10;101645.47;;;8.56;75.34
60307;BME280;46155;52.364;6.580;2023-04-26T12:07:36;101652.63;;;8.69;80.21
60307;BME280;46155;52.364;6.580;2023-04-26T12:10:23;101651.97;;;8.71;75.18
60307;BME280;46155;52.364;6.580;2023-04-26T12:12:50;101641.50;;;8.71;77.07
60307;BME280;46155;52.364;6.580;2023-04-26T12:15:17;101646.03;;;8.84;76.93
60307;BME280;46155;52.364;6.580;2023-04-26T12:17:59;101652.16;;;8.95;76.90
60307;BME280;46155;52.364;6.580;2023-04-26T12:20:30;101650.66;;;9.09;77.29
60307;BME280;46155;52.364;6.580;2023-04-26T12:23:16;101649.63;;;9.29;77.23
60307;BME280;46155;52.364;6.580;2023-04-26T12:25:53;101647.59;;;9.37;76.54
60307;BME280;46155;52.364;6.580;2023-04-26T12:28:19;101648.56;;;9.49;76.42
60307;BME280;46155;52.364;6.580;2023-04-26T12:30:44;101652.09;;;9.50;76.54
60307;BME280;46155;52.364;6.580;2023-04-26T12:33:10;101654.34;;;9.45;76.27
60307;BME280;46155;52.364;6.580;2023-04-26T12:35:35;101650.28;;;9.48;74.02
60307;BME280;46155;52.364;6.580;2023-04-26T12:38:00;101647.66;;;9.48;75.44
60307;BME280;46155;52.364;6.580;2023-04-26T12:40:27;101643.28;;;9.37;72.81
60307;BME280;46155;52.364;6.580;2023-04-26T12:42:53;101651.50;;;9.42;73.33
60307;BME280;46155;52.364;6.580;2023-04-26T12:45:20;101652.59;;;9.34;73.91
60307;BME280;46155;52.364;6.580;2023-04-26T12:47:46;101650.03;;;9.23;72.26
60307;BME280;46155;52.364;6.580;2023-04-26T12:50:12;101642.41;;;9.26;74.49
60307;BME280;46155;52.364;6.580;2023-04-26T12:52:39;101652.59;;;9.34;74.05
60307;BME280;46155;52.364;6.580;2023-04-26T12:55:09;101654.44;;;9.35;74.04
60307;BME280;46155;52.364;6.580;2023-04-26T12:57:35;101648.78;;;9.52;83.42
60307;BME280;46155;52.364;6.580;2023-04-26T13:00:02;101648.44;;;9.81;75.98
60307;BME280;46155;52.364;6.580;2023-04-26T13:02:28;101639.91;;;9.84;75.10
60307;BME280;46155;52.364;6.580;2023-04-26T13:04:54;101654.22;;;9.99;71.76
60307;BME280;46155;52.364;6.580;2023-04-26T13:07:20;101648.78;;;9.86;68.62
60307;BME280;46155;52.364;6.580;2023-04-26T13:09:46;101648.56;;;9.83;71.36
60307;BME280;46155;52.364;6.580;2023-04-26T13:12:11;101647.56;;;9.81;70.50
60307;BME280;46155;52.364;6.580;2023-04-26T13:14:38;101640.91;;;9.74;71.21
60307;BME280;46155;52.364;6.580;2023-04-26T13:17:04;101644.09;;;9.70;72.15
60307;BME280;46155;52.364;6.580;2023-04-26T13:19:30;101635.16;;;9.68;72.53
60307;BME280;46155;52.364;6.580;2023-04-26T13:21:55;101644.97;;;9.71;73.37
60307;BME280;46155;52.364;6.580;2023-04-26T13:24:20;101643.97;;;9.69;73.30
60307;BME280;46155;52.364;6.580;2023-04-26T13:26:46;101649.00;;;9.77;72.99
60307;BME280;46155;52.364;6.580;2023-04-26T13:29:11;101637.69;;;9.67;73.06
60307;BME280;46155;52.364;6.580;2023-04-26T13:31:36;101637.22;;;9.60;73.99
60307;BME280;46155;52.364;6.580;2023-04-26T13:34:02;101644.28;;;9.61;73.48
60307;BME280;46155;52.364;6.580;2023-04-26T13:36:27;101643.84;;;9.67;74.10
60307;BME280;46155;52.364;6.580;2023-04-26T13:38:53;101642.91;;;9.67;73.66
60307;BME280;46155;52.364;6.580;2023-04-26T13:41:18;101641.56;;;9.72;74.03
60307;BME280;46155;52.364;6.580;2023-04-26T13:43:44;101640.69;;;9.83;74.48
60307;BME280;46155;52.364;6.580;2023-04-26T13:46:09;101639.09;;;9.85;74.78
60307;BME280;46155;52.364;6.580;2023-04-26T13:48:34;101641.59;;;9.83;72.46
60307;BME280;46155;52.364;6.580;2023-04-26T13:51:00;101647.34;;;9.90;72.42
60307;BME280;46155;52.364;6.580;2023-04-26T13:53:26;101652.38;;;9.98;69.98
60307;BME280;46155;52.364;6.580;2023-04-26T13:55:52;101642.34;;;10.05;71.20
60307;BME280;46155;52.364;6.580;2023-04-26T13:58:17;101647.13;;;10.10;68.41
60307;BME280;46155;52.364;6.580;2023-04-26T14:00:42;101649.25;;;10.26;64.19
60307;BME280;46155;52.364;6.580;2023-04-26T14:03:08;101650.41;;;10.42;63.49
60307;BME280;46155;52.364;6.580;2023-04-26T14:05:33;101651.88;;;10.50;62.37
60307;BME280;46155;52.364;6.580;2023-04-26T14:07:58;101657.13;;;10.50;57.78
60307;BME280;46155;52.364;6.580;2023-04-26T14:10:24;101658.03;;;10.39;59.13
60307;BME280;46155;52.364;6.580;2023-04-26T14:12:49;101653.44;;;10.24;60.03
60307;BME280;46155;52.364;6.580;2023-04-26T14:15:14;101658.56;;;10.23;63.38
60307;BME280;46155;52.364;6.580;2023-04-26T14:17:40;101657.19;;;10.16;60.97
60307;BME280;46155;52.364;6.580;2023-04-26T14:20:06;101661.66;;;10.17;62.91
60307;BME280;46155;52.364;6.580;2023-04-26T14:22:33;101657.06;;;10.14;62.11
60307;BME280;46155;52.364;6.580;2023-04-26T14:24:58;101663.09;;;10.13;60.17
60307;BME280;46155;52.364;6.580;2023-04-26T14:27:23;101656.94;;;10.01;60.99
60307;BME280;46155;52.364;6.580;2023-04-26T14:29:48;101655.91;;;9.99;63.90
60307;BME280;46155;52.364;6.580;2023-04-26T14:32:14;101655.00;;;9.98;66.10
60307;BME280;46155;52.364;6.580;2023-04-26T14:34:39;101653.50;;;10.02;66.78
60307;BME280;46155;52.364;6.580;2023-04-26T14:37:05;101657.41;;;10.19;63.74
60307;BME280;46155;52.364;6.580;2023-04-26T14:39:31;101653.44;;;10.24;59.67
60307;BME280;46155;52.364;6.580;2023-04-26T14:41:56;101654.94;;;10.21;61.33
60307;BME280;46155;52.364;6.580;2023-04-26T14:44:25;101649.25;;;10.26;62.29
60307;BME280;46155;52.364;6.580;2023-04-26T14:46:51;101650.25;;;10.28;61.61
60307;BME280;46155;52.364;6.580;2023-04-26T14:49:17;101642.94;;;10.24;57.84
60307;BME280;46155;52.364;6.580;2023-04-26T14:51:42;101648.06;;;10.11;56.62
60307;BME280;46155;52.364;6.580;2023-04-26T14:54:08;101647.59;;;10.05;60.20
60307;BME280;46155;52.364;6.580;2023-04-26T14:56:34;101652.03;;;9.94;58.83
60307;BME280;46155;52.364;6.580;2023-04-26T14:59:00;101647.16;;;9.76;61.17
60307;BME280;46155;52.364;6.580;2023-04-26T15:01:26;101653.66;;;9.70;62.23
60307;BME280;46155;52.364;6.580;2023-04-26T15:03:51;101654.00;;;9.40;63.08
60307;BME280;46155;52.364;6.580;2023-04-26T15:06:16;101640.81;;;9.28;65.19
60307;BME280;46155;52.364;6.580;2023-04-26T15:08:42;101650.16;;;9.25;65.53
60307;BME280;46155;52.364;6.580;2023-04-26T15:11:08;101642.06;;;9.22;67.03
60307;BME280;46155;52.364;6.580;2023-04-26T15:13:33;101644.38;;;9.29;66.49
60307;BME280;46155;52.364;6.580;2023-04-26T15:16:03;101644.28;;;9.39;69.05
60307;BME280;46155;52.364;6.580;2023-04-26T15:18:29;101648.09;;;9.43;68.16
60307;BME280;46155;52.364;6.580;2023-04-26T15:20:54;101644.72;;;9.34;67.64
60307;BME280;46155;52.364;6.580;2023-04-26T15:23:20;101650.22;;;9.15;66.47
60307;BME280;46155;52.364;6.580;2023-04-26T15:25:45;101645.03;;;9.26;67.56
60307;BME280;46155;52.364;6.580;2023-04-26T15:28:10;101642.47;;;9.16;67.12
60307;BME280;46155;52.364;6.580;2023-04-26T15:30:36;101647.38;;;9.11;67.66
60307;BME280;46155;52.364;6.580;2023-04-26T15:33:01;101649.47;;;9.05;68.42
60307;BME280;46155;52.364;6.580;2023-04-26T15:35:27;101650.41;;;9.06;68.08
60307;BME280;46155;52.364;6.580;2023-04-26T15:37:52;101643.34;;;9.05;68.22
60307;BME280;46155;52.364;6.580;2023-04-26T15:40:18;101639.94;;;9.06;69.49
60307;BME280;46155;52.364;6.580;2023-04-26T15:42:45;101651.78;;;9.12;69.95
60307;BME280;46155;52.364;6.580;2023-04-26T15:45:10;101658.81;;;9.02;70.16
60307;BME280;46155;52.364;6.580;2023-04-26T15:47:35;101653.72;;;8.93;70.59
60307;BME280;46155;52.364;6.580;2023-04-26T15:50:04;101647.81;;;8.95;73.34
60307;BME280;46155;52.364;6.580;2023-04-26T15:52:33;101649.28;;;9.14;73.44
60307;BME280;46155;52.364;6.580;2023-04-26T15:55:00;101657.41;;;9.17;72.57
60307;BME280;46155;52.364;6.580;2023-04-26T15:57:25;101653.69;;;9.25;71.64
60307;BME280;46155;52.364;6.580;2023-04-26T15:59:51;101658.91;;;9.25;71.35
60307;BME280;46155;52.364;6.580;2023-04-26T16:02:16;101660.53;;;9.23;72.75
60307;BME280;46155;52.364;6.580;2023-04-26T16:04:41;101661.59;;;9.15;72.11
60307;BME280;46155;52.364;6.580;2023-04-26T16:07:07;101658.25;;;9.06;71.46